aviador You're here:

GCLP Decoded Metar

LAS PALMAS in SPAIN
Report Time2017-09-25 16:30:00
UTC Time2017-09-25 16:57:49
Flight Rules vfr VFR
Wind160° at 09 kt
W.Decomp.*RWY 21: 6.4 kt HW 6.4 kt LCW
W.Rank160° ranks 13
Current wind is above 160° avg. (8.2)
Visibility9999 m
Phenomena:N/A
Clouds:Few 040 Hf
Scattered 080 Hf
Expected CloudBase > 3,200 ft AGL from Temp-Dew spread
CeilingNone
Temp27°C (ISA +12)
Dew Point19°C (62% RH)
Heat Index28.2°C
QNH1020 hPa
Density Alt1,542 ft
Elevation82 ft
Report Wrong Elevation
Raw Report
GCLP 251630Z 16009KT 140V200 9999 FEW040 SCT080 27/19 Q1020
NOSIG=

Extra information for GCLP:More info

Metar Taf Metar & Taf Last 4 Metars F.Rules Stats Wind Profile Meteogram Temp Stats Airport Information Weather charts Add Link Nearby VenuesMetar ALERT Operation Metar Decoded Social comments